createdAt,value
2017-08-27T00:01:42.980Z,16.27
2017-08-27T00:04:12.297Z,14.60
2017-08-27T00:06:42.418Z,14.50
2017-08-27T00:09:11.664Z,16.20
2017-08-27T00:11:40.934Z,14.80
2017-08-27T00:14:10.212Z,16.03
2017-08-27T00:16:39.790Z,16.60
2017-08-27T00:19:09.044Z,16.23
2017-08-27T00:21:38.463Z,16.77
2017-08-27T00:24:07.838Z,14.90
2017-08-27T00:26:37.354Z,16.30
2017-08-27T00:29:06.823Z,16.33
2017-08-27T00:31:36.089Z,15.87
2017-08-27T00:34:05.382Z,14.53
2017-08-27T00:36:34.633Z,14.47
2017-08-27T00:39:03.889Z,16.77
2017-08-27T00:41:33.172Z,15.13
2017-08-27T00:44:02.471Z,15.70
2017-08-27T00:46:31.849Z,15.87
2017-08-27T00:49:01.142Z,16.10
2017-08-27T00:51:30.424Z,15.33
2017-08-27T00:53:59.681Z,15.73
2017-08-27T00:56:29.078Z,17.10
2017-08-27T00:58:58.378Z,15.27
2017-08-27T01:01:27.666Z,14.27
2017-08-27T01:03:56.992Z,15.40
2017-08-27T01:06:26.264Z,13.57
2017-08-27T01:08:55.583Z,14.60
2017-08-27T01:11:24.890Z,16.63
2017-08-27T01:13:54.186Z,15.70
2017-08-27T01:16:23.470Z,15.47
2017-08-27T01:18:52.798Z,14.30
2017-08-27T01:21:22.088Z,14.70
2017-08-27T01:23:51.334Z,16.00
2017-08-27T01:26:20.612Z,15.37
2017-08-27T01:28:49.866Z,16.20
2017-08-27T01:31:19.150Z,14.53
2017-08-27T01:33:48.404Z,14.47
2017-08-27T01:36:17.658Z,13.90
2017-08-27T01:38:46.921Z,15.53
2017-08-27T01:41:16.169Z,14.80
2017-08-27T01:43:45.452Z,14.50
2017-08-27T01:46:14.881Z,15.50
2017-08-27T01:48:44.334Z,14.80
2017-08-27T01:51:13.701Z,14.53
2017-08-27T01:53:42.976Z,14.83
2017-08-27T01:56:12.265Z,17.47
2017-08-27T01:58:41.511Z,14.97
2017-08-27T02:01:10.894Z,16.90
2017-08-27T02:03:40.198Z,14.13
2017-08-27T02:06:09.446Z,17.17
2017-08-27T02:08:38.873Z,15.07
2017-08-27T02:11:08.148Z,16.07
2017-08-27T02:13:37.402Z,14.40
2017-08-27T02:16:06.787Z,15.43
2017-08-27T02:18:36.077Z,15.50
2017-08-27T02:21:05.353Z,13.17
2017-08-27T02:23:34.602Z,12.87
2017-08-27T02:26:03.898Z,13.97
2017-08-27T02:28:33.249Z,14.90
2017-08-27T02:31:02.735Z,16.50
2017-08-27T02:33:32.034Z,14.40
2017-08-27T02:36:01.352Z,14.63
2017-08-27T02:38:30.635Z,14.97
2017-08-27T02:41:00.029Z,13.77
2017-08-27T02:43:29.305Z,13.90
2017-08-27T02:45:58.626Z,14.80
2017-08-27T02:48:28.211Z,13.83
2017-08-27T02:50:57.482Z,15.43
2017-08-27T02:53:26.792Z,13.50
2017-08-27T02:55:56.061Z,15.60
2017-08-27T02:58:25.330Z,15.70
2017-08-27T03:00:54.594Z,14.13
2017-08-27T03:03:23.875Z,13.80
2017-08-27T03:05:53.162Z,14.80
2017-08-27T03:08:22.465Z,12.57
2017-08-27T03:10:51.776Z,12.50
2017-08-27T03:13:21.066Z,13.27
2017-08-27T03:15:50.542Z,13.17
2017-08-27T03:18:19.814Z,13.80
2017-08-27T03:20:49.071Z,12.20
2017-08-27T03:23:18.354Z,11.70
2017-08-27T03:25:47.611Z,11.87
2017-08-27T03:28:16.869Z,11.70
2017-08-27T03:30:46.234Z,11.77
2017-08-27T03:33:15.518Z,10.97
2017-08-27T03:35:44.817Z,12.07
2017-08-27T03:38:14.119Z,15.30
2017-08-27T03:40:43.373Z,13.43
2017-08-27T03:43:12.611Z,13.30
2017-08-27T03:45:41.881Z,12.27
2017-08-27T03:48:11.139Z,11.50
2017-08-27T03:50:40.572Z,12.40
2017-08-27T03:53:09.853Z,14.10
2017-08-27T03:55:39.190Z,14.67
2017-08-27T03:58:08.458Z,13.33
2017-08-27T04:00:37.726Z,14.33
2017-08-27T04:03:06.979Z,13.20
2017-08-27T04:05:36.239Z,14.70
2017-08-27T04:08:05.513Z,15.37
2017-08-27T04:10:34.762Z,14.40
2017-08-27T04:13:04.057Z,16.10
2017-08-27T04:15:33.809Z,15.87
2017-08-27T04:18:03.095Z,14.80
2017-08-27T04:20:32.343Z,15.13
2017-08-27T04:23:01.606Z,15.13
2017-08-27T04:25:30.950Z,13.90
2017-08-27T04:28:00.179Z,14.07
2017-08-27T04:30:29.449Z,14.33
2017-08-27T04:32:58.713Z,15.17
2017-08-27T04:35:27.981Z,13.10
2017-08-27T04:37:57.287Z,14.23
2017-08-27T04:40:26.554Z,13.73
2017-08-27T04:42:55.919Z,13.70
2017-08-27T04:45:25.194Z,13.50
2017-08-27T04:47:55.253Z,12.67
2017-08-27T04:50:24.529Z,12.60
2017-08-27T04:52:53.797Z,12.67
2017-08-27T04:55:23.062Z,12.67
2017-08-27T04:57:52.502Z,13.70
2017-08-27T05:00:21.848Z,13.77
2017-08-27T05:02:51.121Z,13.43
2017-08-27T05:05:20.381Z,13.07
2017-08-27T05:07:49.743Z,14.07
2017-08-27T05:10:18.994Z,13.27
2017-08-27T05:12:48.354Z,12.60
2017-08-27T05:15:18.532Z,12.70
2017-08-27T05:17:48.025Z,12.80
2017-08-27T05:20:17.762Z,12.20
2017-08-27T05:22:47.017Z,11.57
2017-08-27T05:25:16.458Z,10.90
2017-08-27T05:27:45.737Z,10.67
2017-08-27T05:30:15.149Z,12.37
2017-08-27T05:32:44.501Z,10.93
2017-08-27T05:35:13.728Z,11.33
2017-08-27T05:37:42.999Z,11.40
2017-08-27T05:40:12.439Z,10.40
2017-08-27T05:42:41.785Z,10.53
2017-08-27T05:45:11.022Z,10.80
2017-08-27T05:47:40.309Z,11.10
2017-08-27T05:50:09.829Z,10.27
2017-08-27T05:52:39.253Z,10.30
2017-08-27T05:55:08.590Z,11.73
2017-08-27T05:57:38.021Z,9.70
2017-08-27T06:00:07.305Z,9.70
2017-08-27T06:02:36.680Z,11.47
2017-08-27T06:05:06.743Z,9.70
2017-08-27T06:07:35.996Z,9.70
2017-08-27T06:10:05.251Z,9.07
2017-08-27T06:12:34.534Z,8.67
2017-08-27T06:15:03.802Z,9.00
2017-08-27T06:17:33.170Z,9.50
2017-08-27T06:20:02.557Z,8.17
2017-08-27T06:22:31.798Z,8.80
2017-08-27T06:25:01.058Z,8.47
2017-08-27T06:27:30.400Z,7.20
2017-08-27T06:29:59.689Z,8.30
2017-08-27T06:32:29.113Z,7.70
2017-08-27T06:34:58.336Z,8.07
2017-08-27T06:37:27.597Z,9.40
2017-08-27T06:39:57.145Z,9.97
2017-08-27T06:42:26.506Z,10.40
2017-08-27T06:44:55.806Z,12.30
2017-08-27T06:47:25.313Z,10.57
2017-08-27T06:49:54.558Z,10.57
2017-08-27T06:52:24.005Z,10.33
2017-08-27T06:54:53.514Z,10.67
2017-08-27T06:57:23.567Z,9.50
2017-08-27T06:59:52.836Z,10.20
2017-08-27T07:02:22.099Z,10.87
2017-08-27T07:04:51.354Z,11.47
2017-08-27T07:07:20.623Z,12.07
2017-08-27T07:09:49.874Z,12.50
2017-08-27T07:12:19.221Z,11.23
2017-08-27T07:14:48.527Z,10.13
2017-08-27T07:17:17.772Z,8.53
2017-08-27T07:19:47.135Z,9.60
2017-08-27T07:22:16.457Z,8.10
2017-08-27T07:24:45.725Z,8.07
2017-08-27T07:27:14.975Z,8.27
2017-08-27T07:29:44.225Z,6.97
2017-08-27T07:32:13.494Z,6.13
2017-08-27T07:34:42.748Z,6.90
2017-08-27T07:37:11.986Z,6.97
2017-08-27T07:39:41.266Z,7.23
2017-08-27T07:42:10.521Z,6.87
2017-08-27T07:44:39.799Z,6.70
2017-08-27T07:47:09.271Z,9.23
2017-08-27T07:49:38.595Z,12.37
2017-08-27T07:52:07.861Z,11.07
2017-08-27T07:54:37.130Z,11.93
2017-08-27T07:57:06.409Z,11.00
2017-08-27T07:59:39.139Z,12.40
2017-08-27T08:02:12.862Z,11.23
2017-08-27T08:04:42.094Z,10.87
2017-08-27T08:07:11.373Z,12.17
2017-08-27T08:09:40.629Z,11.83
2017-08-27T08:12:09.883Z,12.77
2017-08-27T08:14:39.374Z,11.20
2017-08-27T08:17:08.629Z,12.93
2017-08-27T08:19:37.915Z,12.07
2017-08-27T08:22:07.179Z,10.90
2017-08-27T08:24:36.446Z,10.70
2017-08-27T08:27:05.861Z,10.90
2017-08-27T08:29:35.156Z,10.00
2017-08-27T08:32:04.412Z,10.20
2017-08-27T08:34:33.696Z,11.83
2017-08-27T08:37:02.942Z,9.47
2017-08-27T08:39:32.347Z,8.90
2017-08-27T08:42:01.605Z,10.83
2017-08-27T08:44:31.632Z,9.10
2017-08-27T08:47:00.901Z,9.33
2017-08-27T08:49:30.154Z,10.30
2017-08-27T08:51:59.943Z,10.67
2017-08-27T08:54:29.362Z,10.30
2017-08-27T08:56:58.622Z,10.87
2017-08-27T08:59:27.915Z,14.10
2017-08-27T09:01:57.186Z,13.53
2017-08-27T09:04:26.470Z,14.97
2017-08-27T09:06:55.722Z,13.97
2017-08-27T09:09:25.007Z,13.63
2017-08-27T09:11:54.335Z,13.73
2017-08-27T09:14:23.752Z,15.00
2017-08-27T09:16:53.251Z,13.30
2017-08-27T09:19:22.584Z,11.30
2017-08-27T09:21:51.865Z,11.53
2017-08-27T09:24:21.279Z,12.30
2017-08-27T09:26:50.541Z,11.90
2017-08-27T09:29:19.832Z,11.70
2017-08-27T09:31:49.525Z,12.20
2017-08-27T09:34:18.940Z,12.60
2017-08-27T09:36:48.214Z,12.13
2017-08-27T09:39:17.581Z,13.23
2017-08-27T09:41:46.821Z,13.33
2017-08-27T09:44:16.960Z,14.50
2017-08-27T09:46:46.276Z,12.67
2017-08-27T09:49:15.734Z,13.50
2017-08-27T09:51:45.076Z,13.33
2017-08-27T09:54:14.328Z,12.30
2017-08-27T09:56:43.632Z,12.60
2017-08-27T09:59:12.874Z,12.03
2017-08-27T10:01:42.146Z,13.57
2017-08-27T10:04:11.434Z,13.20
2017-08-27T10:06:40.681Z,12.60
2017-08-27T10:09:09.966Z,12.83
2017-08-27T10:11:39.229Z,12.50
2017-08-27T10:14:08.498Z,13.23
2017-08-27T10:16:37.982Z,12.47
2017-08-27T10:19:07.317Z,9.90
2017-08-27T10:21:36.580Z,10.13
2017-08-27T10:24:06.124Z,12.47
2017-08-27T10:26:35.383Z,12.30
2017-08-27T10:29:05.514Z,12.03
2017-08-27T10:31:34.814Z,12.80
2017-08-27T10:34:04.076Z,10.20
2017-08-27T10:36:34.211Z,11.47
2017-08-27T10:39:03.467Z,11.37
2017-08-27T10:41:32.815Z,11.37
2017-08-27T10:44:02.066Z,12.30
2017-08-27T10:46:31.576Z,11.60
2017-08-27T10:49:00.954Z,12.60
2017-08-27T10:51:30.182Z,12.90
2017-08-27T10:53:59.470Z,14.07
2017-08-27T10:56:28.742Z,14.20
2017-08-27T10:58:58.018Z,12.00
2017-08-27T11:01:27.294Z,12.17
2017-08-27T11:03:56.661Z,10.90
2017-08-27T11:06:25.968Z,12.50
2017-08-27T11:08:55.227Z,11.30
2017-08-27T11:11:24.639Z,11.40
2017-08-27T11:13:53.887Z,12.27
2017-08-27T11:16:23.778Z,13.83
2017-08-27T11:18:53.538Z,11.67
2017-08-27T11:21:22.887Z,9.23
2017-08-27T11:23:52.425Z,12.57
2017-08-27T11:26:21.686Z,11.73
2017-08-27T11:28:50.986Z,10.30
2017-08-27T11:31:20.242Z,11.67
2017-08-27T11:33:49.548Z,11.10
2017-08-27T11:36:18.984Z,14.30
2017-08-27T11:38:48.231Z,12.30
2017-08-27T11:41:17.511Z,12.13
2017-08-27T11:43:47.392Z,10.00
2017-08-27T11:46:16.652Z,11.30
2017-08-27T11:48:45.913Z,11.30
2017-08-27T11:51:15.285Z,10.07
2017-08-27T11:53:44.649Z,10.40
2017-08-27T11:56:13.924Z,12.10
2017-08-27T11:58:43.202Z,13.60
2017-08-27T12:01:12.607Z,12.63
2017-08-27T12:03:41.861Z,10.80
2017-08-27T12:06:11.153Z,12.00
2017-08-27T12:08:40.439Z,10.60
2017-08-27T12:11:09.724Z,11.00
2017-08-27T12:13:38.980Z,10.10
2017-08-27T12:16:08.258Z,10.20
2017-08-27T12:18:37.531Z,10.30
2017-08-27T12:21:06.791Z,10.00
2017-08-27T12:23:36.079Z,10.13
2017-08-27T12:26:05.354Z,10.10
2017-08-27T12:28:34.694Z,9.63
2017-08-27T12:31:04.481Z,10.83
2017-08-27T12:33:35.535Z,9.43
2017-08-27T12:36:05.257Z,9.20
2017-08-27T12:38:35.267Z,10.80
2017-08-27T12:41:04.532Z,10.50
2017-08-27T12:43:33.948Z,10.60
2017-08-27T12:46:04.400Z,10.70
2017-08-27T12:48:33.866Z,10.50
2017-08-27T12:51:03.121Z,8.00
2017-08-27T12:53:32.374Z,9.03
2017-08-27T12:56:01.650Z,9.60
2017-08-27T12:58:31.064Z,8.83
2017-08-27T13:01:00.385Z,9.57
2017-08-27T13:03:29.661Z,8.70
2017-08-27T13:05:59.791Z,8.87
2017-08-27T13:08:29.073Z,9.07
2017-08-27T13:10:58.403Z,8.90
2017-08-27T13:13:27.667Z,9.87
2017-08-27T13:15:56.968Z,9.70
2017-08-27T13:18:26.930Z,9.17
2017-08-27T13:20:56.409Z,9.00
2017-08-27T13:23:25.658Z,9.37
2017-08-27T13:25:55.010Z,10.20
2017-08-27T13:28:24.283Z,10.00
2017-08-27T13:30:53.558Z,8.37
2017-08-27T13:33:22.811Z,8.40
2017-08-27T13:35:52.145Z,8.10
2017-08-27T13:38:21.424Z,9.90
2017-08-27T13:40:50.682Z,8.80
2017-08-27T13:43:19.974Z,9.03
2017-08-27T13:45:49.371Z,10.53
2017-08-27T13:48:19.844Z,9.60
2017-08-27T13:50:49.209Z,9.80
2017-08-27T13:53:18.502Z,10.07
2017-08-27T13:55:47.744Z,8.80
2017-08-27T13:58:17.026Z,8.20
2017-08-27T14:00:46.318Z,8.60
2017-08-27T14:03:15.569Z,9.37
2017-08-27T14:05:44.870Z,7.77
2017-08-27T14:08:14.146Z,9.67
2017-08-27T14:10:43.413Z,8.27
2017-08-27T14:13:12.695Z,9.90
2017-08-27T14:15:42.230Z,9.60
2017-08-27T14:18:11.623Z,9.57
2017-08-27T14:20:40.841Z,10.00
2017-08-27T14:23:10.157Z,9.13
2017-08-27T14:25:40.148Z,9.30
2017-08-27T14:28:09.440Z,7.47
2017-08-27T14:30:38.727Z,9.87
2017-08-27T14:33:08.893Z,8.97
2017-08-27T14:35:38.132Z,10.13
2017-08-27T14:38:07.458Z,8.97
2017-08-27T14:40:36.732Z,7.93
2017-08-27T14:43:05.978Z,9.03
2017-08-27T14:45:35.248Z,9.03
2017-08-27T14:48:04.752Z,9.50
2017-08-27T14:50:34.030Z,10.27
2017-08-27T14:53:03.447Z,9.83
2017-08-27T14:55:32.717Z,9.20
2017-08-27T14:58:01.986Z,8.70
2017-08-27T15:00:31.426Z,9.60
2017-08-27T15:03:00.831Z,9.30
2017-08-27T15:05:30.073Z,9.80
2017-08-27T15:07:59.375Z,8.93
2017-08-27T15:10:29.620Z,9.20
2017-08-27T15:12:58.892Z,9.00
2017-08-27T15:15:28.186Z,9.60
2017-08-27T15:17:57.551Z,9.10
2017-08-27T15:20:26.801Z,9.00
2017-08-27T15:22:56.066Z,9.57
2017-08-27T15:25:25.355Z,9.33
2017-08-27T15:27:54.641Z,9.00
2017-08-27T15:30:23.907Z,9.17
2017-08-27T15:32:53.308Z,8.97
2017-08-27T15:35:22.575Z,10.23
2017-08-27T15:37:51.851Z,9.13
2017-08-27T15:40:21.206Z,8.40
2017-08-27T15:42:50.474Z,8.53
2017-08-27T15:45:19.785Z,9.10
2017-08-27T15:47:49.113Z,8.33
2017-08-27T15:50:18.373Z,10.03
2017-08-27T15:52:51.322Z,10.13
2017-08-27T15:55:20.554Z,10.67
2017-08-27T15:57:49.855Z,9.47
2017-08-27T16:00:19.137Z,10.30
2017-08-27T16:02:48.538Z,9.50
2017-08-27T16:05:17.845Z,10.10
2017-08-27T16:07:47.101Z,9.93
2017-08-27T16:10:16.367Z,11.50
2017-08-27T16:12:45.617Z,9.87
2017-08-27T16:15:14.919Z,9.50
2017-08-27T16:17:44.162Z,10.77
2017-08-27T16:20:13.450Z,10.37
2017-08-27T16:22:43.684Z,10.20
2017-08-27T16:25:12.939Z,8.83
2017-08-27T16:27:42.221Z,10.57
2017-08-27T16:30:11.486Z,11.83
2017-08-27T16:32:42.679Z,11.23
2017-08-27T16:35:11.957Z,10.20
2017-08-27T16:37:41.234Z,9.73
2017-08-27T16:40:10.513Z,10.07
2017-08-27T16:42:39.827Z,10.00
2017-08-27T16:45:09.098Z,9.63
2017-08-27T16:47:39.392Z,10.10
2017-08-27T16:50:08.667Z,10.20
2017-08-27T16:52:38.065Z,10.30
2017-08-27T16:55:07.496Z,10.53
2017-08-27T16:57:36.762Z,11.73
2017-08-27T17:00:06.044Z,12.60
2017-08-27T17:02:35.289Z,11.13
2017-08-27T17:05:04.691Z,12.57
2017-08-27T17:07:33.998Z,12.63
2017-08-27T17:10:03.369Z,12.00
2017-08-27T17:12:32.754Z,12.37
2017-08-27T17:15:02.138Z,11.67
2017-08-27T17:17:31.402Z,12.47
2017-08-27T17:20:00.708Z,14.27
2017-08-27T17:22:29.966Z,11.60
2017-08-27T17:24:59.272Z,12.33
2017-08-27T17:27:28.606Z,11.63
2017-08-27T17:29:57.902Z,13.17
2017-08-27T17:32:27.165Z,11.90
2017-08-27T17:34:56.418Z,13.53
2017-08-27T17:37:25.848Z,12.10
2017-08-27T17:39:55.086Z,15.37
2017-08-27T17:42:24.446Z,13.70
2017-08-27T17:44:53.768Z,14.10
2017-08-27T17:47:23.009Z,13.57
2017-08-27T17:49:52.377Z,13.03
2017-08-27T17:52:21.653Z,14.03
2017-08-27T17:54:50.931Z,13.10
2017-08-27T17:57:20.202Z,13.00
2017-08-27T17:59:49.570Z,14.43
2017-08-27T18:02:19.232Z,15.13
2017-08-27T18:04:48.668Z,14.10
2017-08-27T18:07:18.104Z,17.13
2017-08-27T18:09:47.340Z,12.70
2017-08-27T18:12:16.640Z,13.40
2017-08-27T18:14:45.894Z,14.60
2017-08-27T18:17:15.182Z,13.73
2017-08-27T18:19:44.454Z,13.07
2017-08-27T18:22:13.742Z,15.87
2017-08-27T18:24:43.010Z,14.20
2017-08-27T18:27:12.788Z,13.83
2017-08-27T18:29:42.133Z,13.50
2017-08-27T18:32:11.631Z,13.27
2017-08-27T18:34:41.078Z,15.27
2017-08-27T18:37:10.378Z,15.10
2017-08-27T18:39:39.675Z,13.60
2017-08-27T18:42:09.250Z,14.60
2017-08-27T18:44:39.346Z,15.17
2017-08-27T18:47:08.611Z,13.70
2017-08-27T18:49:37.877Z,14.90
2017-08-27T18:52:07.164Z,16.23
2017-08-27T18:54:36.421Z,15.40
2017-08-27T18:57:05.706Z,14.60
2017-08-27T18:59:35.251Z,16.13
2017-08-27T19:02:04.549Z,14.13
2017-08-27T19:04:33.874Z,14.57
2017-08-27T19:07:03.137Z,15.70
2017-08-27T19:09:32.459Z,15.00
2017-08-27T19:12:01.770Z,14.83
2017-08-27T19:14:31.077Z,16.03
2017-08-27T19:17:00.333Z,15.20
2017-08-27T19:19:30.211Z,13.37
2017-08-27T19:21:59.509Z,14.63
2017-08-27T19:24:28.794Z,15.57
2017-08-27T19:26:58.059Z,16.13
2017-08-27T19:29:27.498Z,14.93
2017-08-27T19:31:56.782Z,14.60
2017-08-27T19:34:26.091Z,14.67
2017-08-27T19:36:55.593Z,13.87
2017-08-27T19:39:24.831Z,13.30
2017-08-27T19:41:54.120Z,14.17
2017-08-27T19:44:23.461Z,14.67
2017-08-27T19:46:52.761Z,13.47
2017-08-27T19:49:22.652Z,12.10
2017-08-27T19:51:51.920Z,13.10
2017-08-27T19:54:21.629Z,13.10
2017-08-27T19:56:50.878Z,14.53
2017-08-27T19:59:20.334Z,13.57
2017-08-27T20:01:49.651Z,13.80
2017-08-27T20:04:18.944Z,12.83
2017-08-27T20:06:48.202Z,14.10
2017-08-27T20:09:17.519Z,13.20
2017-08-27T20:11:46.902Z,15.20
2017-08-27T20:14:16.161Z,14.63
2017-08-27T20:16:45.662Z,14.30
2017-08-27T20:19:14.958Z,12.87
2017-08-27T20:21:44.537Z,12.40
2017-08-27T20:24:13.798Z,14.13
2017-08-27T20:26:45.214Z,12.93
2017-08-27T20:29:15.127Z,13.73
2017-08-27T20:31:44.533Z,12.53
2017-08-27T20:34:15.747Z,12.57
2017-08-27T20:36:45.059Z,13.27
2017-08-27T20:39:14.381Z,13.20
2017-08-27T20:41:43.805Z,12.90
2017-08-27T20:44:13.485Z,13.57
2017-08-27T20:46:42.798Z,13.30
2017-08-27T20:49:12.538Z,12.03
2017-08-27T20:51:41.908Z,12.17
2017-08-27T20:54:11.153Z,13.13
2017-08-27T20:56:40.452Z,11.80
2017-08-27T20:59:09.717Z,13.27
2017-08-27T21:04:28.961Z,12.43
2017-08-27T21:06:58.270Z,11.90
2017-08-27T21:09:28.157Z,11.57
2017-08-27T21:11:57.431Z,10.40
2017-08-27T21:14:26.709Z,12.40
2017-08-27T21:16:56.723Z,12.73
2017-08-27T21:19:26.066Z,11.47
2017-08-27T21:21:55.478Z,12.30
2017-08-27T21:24:24.722Z,11.57
2017-08-27T21:26:54.304Z,12.20
2017-08-27T21:29:23.695Z,12.27
2017-08-27T21:31:52.929Z,12.20
2017-08-27T21:34:22.217Z,11.90
2017-08-27T21:36:51.582Z,11.73
2017-08-27T21:39:20.846Z,11.53
2017-08-27T21:41:50.139Z,11.73
2017-08-27T21:44:19.417Z,12.87
2017-08-27T21:46:48.798Z,10.97
2017-08-27T21:49:18.229Z,10.70
2017-08-27T21:51:47.752Z,11.00
2017-08-27T21:54:17.026Z,12.87
2017-08-27T21:56:48.107Z,11.87
2017-08-27T21:59:20.227Z,11.80
2017-08-27T22:01:49.638Z,12.80
2017-08-27T22:04:18.950Z,11.03
2017-08-27T22:06:52.009Z,11.77
2017-08-27T22:09:23.983Z,12.90
2017-08-27T22:11:53.274Z,11.47
2017-08-27T22:14:22.530Z,11.40
2017-08-27T22:16:51.819Z,11.80
2017-08-27T22:19:21.065Z,11.97
2017-08-27T22:21:50.436Z,11.63
2017-08-27T22:24:19.797Z,11.30
2017-08-27T22:26:49.312Z,11.20
2017-08-27T22:29:18.574Z,12.07
2017-08-27T22:31:47.865Z,11.40
2017-08-27T22:34:17.206Z,10.30
2017-08-27T22:36:46.493Z,12.20
2017-08-27T22:39:15.805Z,12.60
2017-08-27T22:41:45.090Z,11.27
2017-08-27T22:44:14.390Z,10.80
2017-08-27T22:46:43.860Z,11.93
2017-08-27T22:49:13.144Z,10.97
2017-08-27T22:51:42.466Z,12.00
2017-08-27T22:54:11.911Z,12.50
2017-08-27T22:56:41.204Z,12.03
2017-08-27T22:59:10.538Z,12.00
2017-08-27T23:01:39.926Z,12.60
2017-08-27T23:04:09.221Z,11.47
2017-08-27T23:06:38.500Z,12.17
2017-08-27T23:09:07.758Z,11.80
2017-08-27T23:11:37.022Z,12.47
2017-08-27T23:14:06.429Z,13.07
2017-08-27T23:16:35.724Z,12.27
2017-08-27T23:19:05.015Z,11.60
2017-08-27T23:21:34.269Z,11.23
2017-08-27T23:24:03.585Z,12.40
2017-08-27T23:26:33.837Z,12.07
2017-08-27T23:29:03.282Z,11.87
2017-08-27T23:31:32.561Z,11.80
2017-08-27T23:34:01.840Z,12.17
2017-08-27T23:36:31.142Z,10.97
2017-08-27T23:39:00.407Z,11.07
2017-08-27T23:41:29.700Z,12.23
2017-08-27T23:43:58.954Z,12.97
2017-08-27T23:46:28.239Z,10.83
2017-08-27T23:48:57.506Z,11.00
2017-08-27T23:51:26.756Z,10.80
2017-08-27T23:53:56.091Z,11.53
2017-08-27T23:56:25.407Z,11.70
2017-08-27T23:58:54.696Z,11.70
